createdAt,value
2018-06-25T00:01:14.745Z,17.10
2018-06-25T00:03:43.034Z,17.10
2018-06-25T00:06:11.274Z,17.00
2018-06-25T00:08:39.486Z,17.00
2018-06-25T00:11:07.797Z,17.00
2018-06-25T00:13:36.035Z,17.10
2018-06-25T00:16:04.653Z,17.10
2018-06-25T00:18:32.851Z,17.10
2018-06-25T00:21:01.150Z,17.20
2018-06-25T00:23:29.402Z,17.20
2018-06-25T00:25:57.621Z,17.20
2018-06-25T00:28:25.904Z,17.20
2018-06-25T00:30:54.102Z,17.20
2018-06-25T00:33:22.341Z,17.20
2018-06-25T00:35:50.579Z,17.20
2018-06-25T00:38:18.797Z,17.20
2018-06-25T00:40:47.023Z,17.20
2018-06-25T00:43:15.318Z,17.20
2018-06-25T00:45:43.527Z,17.20
2018-06-25T00:48:11.739Z,17.20
2018-06-25T00:50:40.122Z,17.20
2018-06-25T00:53:08.326Z,17.30
2018-06-25T00:55:36.532Z,17.30
2018-06-25T00:58:04.917Z,17.30
2018-06-25T01:00:33.166Z,17.30
2018-06-25T01:03:01.414Z,17.20
2018-06-25T01:05:29.625Z,17.20
2018-06-25T01:10:25.831Z,17.10
2018-06-25T01:12:54.090Z,17.10
2018-06-25T01:15:22.373Z,17.20
2018-06-25T01:17:50.596Z,17.20
2018-06-25T01:20:18.837Z,17.20
2018-06-25T01:22:47.498Z,17.10
2018-06-25T01:25:16.452Z,17.10
2018-06-25T01:27:44.646Z,17.10
2018-06-25T01:30:12.937Z,17.10
2018-06-25T01:32:41.121Z,17.10
2018-06-25T01:35:09.357Z,17.00
2018-06-25T01:37:37.577Z,16.90
2018-06-25T01:40:06.531Z,16.90
2018-06-25T01:42:34.773Z,16.90
2018-06-25T01:45:02.989Z,16.90
2018-06-25T01:47:31.387Z,16.90
2018-06-25T01:49:59.655Z,16.80
2018-06-25T01:52:27.936Z,16.80
2018-06-25T01:54:56.126Z,16.80
2018-06-25T01:57:24.327Z,16.80
2018-06-25T01:59:52.538Z,16.80
2018-06-25T02:02:20.767Z,16.80
2018-06-25T02:04:48.997Z,16.80
2018-06-25T02:07:17.209Z,16.80
2018-06-25T02:09:45.498Z,16.80
2018-06-25T02:12:13.689Z,16.80
2018-06-25T02:14:41.917Z,16.80
2018-06-25T02:17:10.191Z,16.80
2018-06-25T02:19:38.398Z,16.80
2018-06-25T02:22:06.638Z,16.70
2018-06-25T02:24:34.876Z,16.60
2018-06-25T02:27:03.091Z,16.60
2018-06-25T02:29:31.310Z,16.60
2018-06-25T02:31:59.587Z,16.60
2018-06-25T02:34:27.831Z,16.60
2018-06-25T02:36:56.070Z,16.60
2018-06-25T02:39:24.284Z,16.60
2018-06-25T02:41:52.502Z,16.50
2018-06-25T02:44:21.113Z,16.50
2018-06-25T02:46:49.335Z,16.50
2018-06-25T02:49:17.564Z,16.50
2018-06-25T02:51:45.791Z,16.50
2018-06-25T02:54:14.001Z,16.60
2018-06-25T02:56:42.246Z,16.60
2018-06-25T02:59:10.581Z,16.60
2018-06-25T03:01:38.739Z,16.60
2018-06-25T03:04:06.988Z,16.60
2018-06-25T03:06:35.215Z,16.60
2018-06-25T03:09:04.559Z,16.70
2018-06-25T03:11:32.744Z,16.70
2018-06-25T03:14:00.991Z,16.80
2018-06-25T03:16:29.210Z,16.80
2018-06-25T03:18:57.502Z,16.80
2018-06-25T03:21:25.728Z,16.80
2018-06-25T03:23:53.953Z,16.70
2018-06-25T03:26:22.213Z,16.70
2018-06-25T03:28:50.430Z,16.60
2018-06-25T03:31:18.617Z,16.70
2018-06-25T03:33:46.889Z,16.70
2018-06-25T03:36:15.410Z,16.80
2018-06-25T03:38:43.613Z,16.70
2018-06-25T03:41:11.839Z,16.70
2018-06-25T03:43:40.277Z,16.70
2018-06-25T03:46:08.475Z,16.70
2018-06-25T03:48:37.326Z,16.70
2018-06-25T03:51:05.762Z,16.70
2018-06-25T03:53:33.967Z,16.70
2018-06-25T03:56:02.224Z,16.60
2018-06-25T03:58:30.450Z,16.70
2018-06-25T04:00:59.148Z,16.60
2018-06-25T04:03:27.421Z,16.60
2018-06-25T04:05:55.676Z,16.60
2018-06-25T04:08:23.881Z,16.60
2018-06-25T04:10:52.073Z,16.60
2018-06-25T04:13:20.282Z,16.60
2018-06-25T04:15:48.537Z,16.60
2018-06-25T04:18:16.803Z,16.60
2018-06-25T04:20:45.083Z,16.70
2018-06-25T04:23:13.317Z,16.60
2018-06-25T04:25:41.612Z,16.60
2018-06-25T04:28:09.821Z,16.50
2018-06-25T04:33:06.032Z,16.50
2018-06-25T04:35:34.268Z,16.40
2018-06-25T04:38:02.509Z,16.40
2018-06-25T04:40:31.566Z,16.40
2018-06-25T04:42:59.783Z,16.40
2018-06-25T04:45:27.964Z,16.50
2018-06-25T04:47:56.186Z,16.50
2018-06-25T04:50:24.428Z,16.50
2018-06-25T04:52:52.577Z,16.50
2018-06-25T04:57:48.981Z,16.60
2018-06-25T05:00:17.300Z,16.60
2018-06-25T05:02:45.590Z,16.60
2018-06-25T05:05:13.809Z,16.60
2018-06-25T05:07:42.087Z,16.70
2018-06-25T05:10:17.622Z,16.80
2018-06-25T05:12:45.821Z,16.80
2018-06-25T05:15:14.073Z,16.80
2018-06-25T05:17:42.249Z,16.80
2018-06-25T05:20:10.455Z,16.90
2018-06-25T05:22:38.667Z,17.00
2018-06-25T05:25:06.870Z,17.00
2018-06-25T05:27:35.651Z,17.00
2018-06-25T05:30:03.898Z,17.00
2018-06-25T05:32:32.073Z,17.00
2018-06-25T05:35:00.317Z,17.10
2018-06-25T05:37:28.605Z,17.10
2018-06-25T05:39:56.813Z,17.10
2018-06-25T05:42:25.001Z,17.10
2018-06-25T05:44:53.564Z,17.20
2018-06-25T05:47:22.141Z,17.20
2018-06-25T05:49:50.330Z,17.20
2018-06-25T05:52:18.599Z,17.20
2018-06-25T05:54:46.814Z,17.10
2018-06-25T05:57:15.002Z,17.10
2018-06-25T05:59:44.503Z,17.10
2018-06-25T06:02:12.711Z,17.10
2018-06-25T06:04:40.941Z,17.10
2018-06-25T06:07:09.174Z,17.10
2018-06-25T06:09:37.458Z,17.20
2018-06-25T06:12:05.681Z,17.20
2018-06-25T06:14:34.470Z,17.20
2018-06-25T06:17:02.675Z,17.30
2018-06-25T06:19:30.863Z,17.30
2018-06-25T06:21:59.082Z,17.30
2018-06-25T06:24:27.629Z,17.30
2018-06-25T06:26:55.822Z,17.30
2018-06-25T06:29:24.003Z,17.30
2018-06-25T06:31:52.177Z,17.30
2018-06-25T06:34:20.357Z,17.30
2018-06-25T06:36:48.567Z,17.30
2018-06-25T06:39:16.746Z,17.30
2018-06-25T06:41:46.162Z,17.30
2018-06-25T06:44:14.867Z,17.40
2018-06-25T06:46:43.074Z,17.50
2018-06-25T06:49:11.706Z,17.60
2018-06-25T06:54:07.987Z,17.70
2018-06-25T06:56:36.297Z,18.00
2018-06-25T06:59:04.513Z,18.00
2018-06-25T07:01:32.988Z,18.10
2018-06-25T07:04:01.292Z,18.10
2018-06-25T07:06:29.580Z,18.00
2018-06-25T07:08:57.772Z,18.00
2018-06-25T07:11:25.958Z,18.00
2018-06-25T07:13:54.149Z,17.90
2018-06-25T07:16:22.364Z,18.00
2018-06-25T07:18:50.565Z,17.90
2018-06-25T07:21:18.807Z,17.80
2018-06-25T07:23:46.990Z,17.80
2018-06-25T07:26:20.476Z,17.80
2018-06-25T07:28:48.733Z,17.80
2018-06-25T07:31:16.949Z,17.80
2018-06-25T07:33:45.176Z,17.80
2018-06-25T07:36:13.362Z,17.90
2018-06-25T07:38:41.583Z,17.90
2018-06-25T07:41:09.881Z,18.00
2018-06-25T07:43:38.097Z,18.20
2018-06-25T07:46:06.493Z,18.30
2018-06-25T07:48:34.716Z,18.40
2018-06-25T07:51:03.030Z,18.50
2018-06-25T07:53:31.335Z,18.60
2018-06-25T07:55:59.561Z,18.80
2018-06-25T07:58:27.779Z,18.90
2018-06-25T08:00:56.079Z,18.80
2018-06-25T08:03:24.266Z,18.60
2018-06-25T08:05:52.603Z,18.50
2018-06-25T08:08:20.802Z,18.60
2018-06-25T08:10:49.067Z,18.70
2018-06-25T08:13:17.301Z,18.90
2018-06-25T08:15:45.502Z,19.00
2018-06-25T08:18:13.722Z,19.10
2018-06-25T08:20:41.974Z,19.30
2018-06-25T08:23:10.413Z,19.50
2018-06-25T08:25:38.861Z,19.70
2018-06-25T08:28:07.125Z,19.70
2018-06-25T08:30:35.399Z,19.60
2018-06-25T08:33:03.661Z,19.50
2018-06-25T08:35:31.830Z,19.50
2018-06-25T08:38:00.036Z,19.60
2018-06-25T08:40:28.242Z,19.60
2018-06-25T08:42:56.447Z,19.60
2018-06-25T08:45:24.648Z,19.60
2018-06-25T08:47:52.840Z,19.60
2018-06-25T08:50:21.058Z,19.60
2018-06-25T08:52:49.281Z,19.60
2018-06-25T08:55:17.480Z,19.60
2018-06-25T08:57:45.693Z,19.70
2018-06-25T09:00:13.867Z,19.80
2018-06-25T09:02:42.074Z,19.80
2018-06-25T09:05:10.274Z,19.80
2018-06-25T09:07:38.505Z,19.60
2018-06-25T09:10:06.739Z,19.40
2018-06-25T09:12:34.966Z,19.20
2018-06-25T09:15:03.253Z,19.10
2018-06-25T09:17:31.520Z,19.10
2018-06-25T09:19:59.765Z,19.20
2018-06-25T09:22:27.989Z,19.50
2018-06-25T09:24:56.197Z,19.90
2018-06-25T09:27:24.434Z,20.10
2018-06-25T09:29:52.785Z,20.20
2018-06-25T09:32:21.009Z,20.30
2018-06-25T09:37:18.924Z,20.30
2018-06-25T09:39:47.651Z,20.20
2018-06-25T09:42:15.922Z,20.00
2018-06-25T09:44:44.153Z,20.00
2018-06-25T09:47:12.358Z,19.90
2018-06-25T09:49:40.584Z,19.80
2018-06-25T09:52:08.797Z,19.70
2018-06-25T09:54:37.070Z,19.70
2018-06-25T09:57:05.406Z,19.90
2018-06-25T09:59:33.613Z,19.90
2018-06-25T10:02:01.923Z,19.90
2018-06-25T10:04:30.202Z,19.90
2018-06-25T10:06:58.447Z,20.00
2018-06-25T10:09:26.724Z,20.30
2018-06-25T10:11:55.151Z,20.50
2018-06-25T10:14:23.417Z,20.70
2018-06-25T10:16:51.661Z,20.80
2018-06-25T10:19:19.911Z,21.00
2018-06-25T10:21:48.129Z,21.30
2018-06-25T10:24:16.317Z,21.30
2018-06-25T10:26:44.575Z,21.40
2018-06-25T10:29:12.814Z,21.20
2018-06-25T10:31:41.053Z,21.10
2018-06-25T10:34:09.283Z,21.10
2018-06-25T10:36:37.561Z,21.40
2018-06-25T10:39:08.054Z,21.40
2018-06-25T10:41:36.413Z,21.50
2018-06-25T10:44:04.921Z,21.40
2018-06-25T10:46:33.214Z,21.10
2018-06-25T10:49:01.466Z,21.10
2018-06-25T10:51:29.668Z,21.00
2018-06-25T10:53:58.094Z,21.10
2018-06-25T10:56:26.344Z,21.30
2018-06-25T10:58:54.573Z,20.00
2018-06-25T11:01:22.989Z,21.10
2018-06-25T11:03:51.264Z,20.80
2018-06-25T11:06:19.540Z,20.80
2018-06-25T11:08:48.531Z,20.80
2018-06-25T11:11:16.824Z,20.80
2018-06-25T11:13:45.121Z,20.70
2018-06-25T11:16:13.665Z,20.70
2018-06-25T11:18:41.986Z,20.70
2018-06-25T11:21:10.278Z,20.70
2018-06-25T11:23:38.508Z,20.60
2018-06-25T11:26:06.781Z,20.50
2018-06-25T11:28:35.049Z,20.60
2018-06-25T11:31:03.265Z,20.50
2018-06-25T11:33:31.465Z,20.50
2018-06-25T11:35:59.750Z,20.50
2018-06-25T11:38:27.969Z,20.50
2018-06-25T11:40:56.221Z,20.40
2018-06-25T11:43:27.415Z,20.30
2018-06-25T11:45:55.668Z,20.30
2018-06-25T11:48:23.869Z,20.20
2018-06-25T11:50:52.519Z,20.20
2018-06-25T11:53:20.821Z,20.30
2018-06-25T11:55:50.042Z,20.30
2018-06-25T11:58:18.256Z,20.30
2018-06-25T12:00:46.514Z,20.40
2018-06-25T12:03:15.303Z,20.50
2018-06-25T12:05:43.386Z,20.70
2018-06-25T12:08:11.694Z,20.70
2018-06-25T12:10:39.926Z,20.70
2018-06-25T12:13:08.145Z,20.90
2018-06-25T12:15:36.349Z,20.90
2018-06-25T12:18:04.558Z,21.10
2018-06-25T12:20:32.782Z,21.40
2018-06-25T12:23:01.049Z,21.40
2018-06-25T12:25:29.274Z,21.40
2018-06-25T12:27:57.474Z,21.50
2018-06-25T12:30:25.740Z,21.50
2018-06-25T12:32:53.993Z,21.40
2018-06-25T12:35:22.247Z,21.40
2018-06-25T12:37:50.603Z,21.50
2018-06-25T12:40:18.844Z,21.30
2018-06-25T12:42:47.117Z,21.30
2018-06-25T12:45:15.430Z,21.40
2018-06-25T12:47:43.789Z,21.50
2018-06-25T12:50:12.053Z,21.50
2018-06-25T12:52:40.277Z,21.50
2018-06-25T12:55:08.470Z,21.60
2018-06-25T12:57:36.778Z,21.50
2018-06-25T13:00:05.040Z,21.60
2018-06-25T13:02:33.315Z,21.80
2018-06-25T13:05:01.662Z,21.90
2018-06-25T13:07:29.970Z,21.90
2018-06-25T13:09:58.200Z,22.00
2018-06-25T13:12:26.514Z,21.90
2018-06-25T13:14:55.002Z,22.00
2018-06-25T13:17:23.265Z,22.10
2018-06-25T13:19:51.656Z,22.10
2018-06-25T13:22:20.058Z,22.00
2018-06-25T13:24:48.472Z,22.10
2018-06-25T13:27:17.054Z,22.30
2018-06-25T13:29:45.277Z,22.30
2018-06-25T13:32:13.478Z,22.50
2018-06-25T13:34:41.976Z,22.70
2018-06-25T13:37:10.427Z,22.70
2018-06-25T13:39:38.672Z,22.60
2018-06-25T13:44:34.834Z,22.70
2018-06-25T13:47:03.635Z,22.50
2018-06-25T13:49:31.846Z,22.40
2018-06-25T13:52:00.082Z,22.40
2018-06-25T13:54:29.202Z,22.60
2018-06-25T13:56:57.978Z,22.40
2018-06-25T13:59:26.237Z,22.50
2018-06-25T14:01:54.508Z,22.60
2018-06-25T14:04:22.727Z,22.80
2018-06-25T14:06:50.996Z,22.80
2018-06-25T14:09:19.230Z,22.90
2018-06-25T14:11:47.524Z,22.90
2018-06-25T14:14:15.798Z,23.10
2018-06-25T14:16:44.112Z,23.20
2018-06-25T14:19:12.254Z,23.20
2018-06-25T14:21:40.523Z,23.20
2018-06-25T14:24:14.200Z,23.10
2018-06-25T14:26:44.244Z,23.40
2018-06-25T14:29:17.926Z,23.70
2018-06-25T14:31:46.540Z,23.90
2018-06-25T14:34:20.122Z,24.10
2018-06-25T14:36:48.337Z,24.20
2018-06-25T14:39:16.601Z,24.20
2018-06-25T14:44:20.417Z,23.90
2018-06-25T14:46:48.652Z,23.80
2018-06-25T14:49:16.919Z,23.90
2018-06-25T14:51:45.223Z,23.90
2018-06-25T14:54:13.699Z,24.00
2018-06-25T14:56:41.943Z,24.10
2018-06-25T14:59:10.211Z,24.30
2018-06-25T15:01:38.447Z,24.10
2018-06-25T15:04:06.700Z,24.00
2018-06-25T15:06:34.946Z,23.80
2018-06-25T15:09:03.313Z,23.80
2018-06-25T15:11:31.569Z,23.90
2018-06-25T15:13:59.783Z,24.00
2018-06-25T15:16:28.050Z,24.10
2018-06-25T15:18:56.278Z,24.20
2018-06-25T15:21:24.539Z,24.20
2018-06-25T15:23:52.773Z,24.30
2018-06-25T15:26:21.006Z,24.50
2018-06-25T15:28:49.282Z,24.30
2018-06-25T15:31:17.590Z,24.20
2018-06-25T15:33:45.815Z,23.90
2018-06-25T15:36:14.048Z,23.80
2018-06-25T15:38:42.989Z,24.00
2018-06-25T15:41:11.208Z,24.00
2018-06-25T15:43:39.422Z,24.30
2018-06-25T15:46:07.624Z,24.40
2018-06-25T15:48:35.839Z,24.70
2018-06-25T15:51:04.089Z,24.90
2018-06-25T15:53:32.323Z,24.90
2018-06-25T15:56:00.527Z,24.70
2018-06-25T15:58:28.729Z,24.60
2018-06-25T16:00:57.750Z,24.60
2018-06-25T16:03:26.015Z,24.20
2018-06-25T16:05:54.221Z,23.80
2018-06-25T16:08:22.425Z,23.50
2018-06-25T16:10:50.628Z,23.40
2018-06-25T16:13:18.926Z,23.30
2018-06-25T16:15:47.141Z,23.30
2018-06-25T16:18:15.373Z,23.50
2018-06-25T16:20:43.594Z,23.40
2018-06-25T16:23:11.860Z,23.60
2018-06-25T16:25:40.055Z,23.70
2018-06-25T16:28:08.277Z,23.80
2018-06-25T16:30:36.501Z,23.60
2018-06-25T16:33:04.746Z,23.50
2018-06-25T16:35:33.045Z,23.40
2018-06-25T16:38:01.250Z,23.40
2018-06-25T16:40:29.479Z,23.50
2018-06-25T16:42:57.693Z,23.50
2018-06-25T16:45:25.885Z,23.50
2018-06-25T16:47:54.733Z,23.30
2018-06-25T16:50:22.987Z,23.20
2018-06-25T16:52:51.222Z,23.20
2018-06-25T16:55:19.462Z,23.30
2018-06-25T16:57:47.666Z,23.40
2018-06-25T17:00:15.927Z,23.50
2018-06-25T17:02:44.150Z,23.60
2018-06-25T17:07:40.578Z,23.60
2018-06-25T17:10:08.762Z,23.70
2018-06-25T17:12:36.982Z,23.60
2018-06-25T17:15:05.317Z,23.60
2018-06-25T17:17:33.544Z,23.60
2018-06-25T17:20:01.768Z,23.70
2018-06-25T17:22:29.987Z,23.60
2018-06-25T17:24:58.186Z,23.60
2018-06-25T17:27:26.401Z,23.60
2018-06-25T17:29:54.614Z,23.40
2018-06-25T17:32:22.835Z,23.30
2018-06-25T17:34:51.061Z,23.20
2018-06-25T17:37:19.417Z,23.10
2018-06-25T17:39:47.659Z,23.10
2018-06-25T17:42:15.911Z,23.10
2018-06-25T17:44:44.619Z,23.00
2018-06-25T17:47:12.966Z,23.00
2018-06-25T17:49:41.219Z,23.10
2018-06-25T17:52:09.469Z,23.00
2018-06-25T17:54:37.773Z,23.00
2018-06-25T17:57:06.023Z,23.00
2018-06-25T17:59:34.257Z,23.00
2018-06-25T18:02:02.510Z,23.00
2018-06-25T18:04:31.225Z,23.10
2018-06-25T18:06:59.437Z,23.10
2018-06-25T18:09:27.757Z,23.10
2018-06-25T18:11:56.023Z,23.20
2018-06-25T18:14:24.330Z,23.30
2018-06-25T18:16:52.551Z,23.30
2018-06-25T18:19:20.856Z,23.40
2018-06-25T18:21:49.064Z,23.40
2018-06-25T18:24:17.296Z,23.40
2018-06-25T18:26:45.586Z,23.50
2018-06-25T18:29:13.870Z,23.50
2018-06-25T18:31:42.078Z,21.60
2018-06-25T18:34:12.004Z,23.50
2018-06-25T18:36:41.049Z,23.50
2018-06-25T18:39:12.864Z,23.50
2018-06-25T18:41:41.886Z,23.50
2018-06-25T18:44:10.193Z,23.30
2018-06-25T18:46:38.485Z,23.30
2018-06-25T18:49:07.244Z,23.30
2018-06-25T18:51:35.564Z,23.30
2018-06-25T18:54:04.044Z,23.30
2018-06-25T18:56:32.334Z,23.30
2018-06-25T18:59:00.613Z,23.20
2018-06-25T19:01:28.924Z,23.20
2018-06-25T19:03:57.172Z,23.10
2018-06-25T19:06:25.436Z,23.10
2018-06-25T19:08:53.661Z,23.10
2018-06-25T19:11:21.948Z,23.00
2018-06-25T19:13:50.162Z,22.90
2018-06-25T19:16:18.389Z,22.80
2018-06-25T19:18:46.642Z,22.80
2018-06-25T19:21:15.068Z,22.70
2018-06-25T19:23:43.363Z,22.70
2018-06-25T19:26:11.534Z,22.60
2018-06-25T19:28:39.772Z,22.50
2018-06-25T19:31:15.083Z,22.50
2018-06-25T19:33:43.556Z,22.40
2018-06-25T19:36:12.176Z,22.30
2018-06-25T19:38:40.590Z,22.30
2018-06-25T19:41:08.869Z,22.20
2018-06-25T19:43:37.113Z,22.20
2018-06-25T19:46:05.818Z,22.20
2018-06-25T19:48:34.371Z,22.20
2018-06-25T19:51:03.027Z,22.10
2018-06-25T19:55:59.289Z,22.00
2018-06-25T19:58:27.494Z,22.00
2018-06-25T20:00:55.713Z,22.00
2018-06-25T20:03:23.910Z,21.90
2018-06-25T20:05:52.184Z,21.90
2018-06-25T20:08:20.467Z,21.80
2018-06-25T20:10:48.821Z,21.80
2018-06-25T20:13:17.034Z,21.80
2018-06-25T20:15:45.246Z,21.80
2018-06-25T20:18:19.946Z,21.80
2018-06-25T20:20:48.167Z,21.70
2018-06-25T20:23:16.415Z,21.70
2018-06-25T20:25:44.694Z,21.70
2018-06-25T20:28:12.863Z,21.70
2018-06-25T20:30:41.101Z,21.70
2018-06-25T20:33:09.415Z,21.60
2018-06-25T20:35:37.619Z,21.50
2018-06-25T20:38:08.032Z,21.50
2018-06-25T20:40:36.418Z,21.40
2018-06-25T20:43:04.746Z,21.40
2018-06-25T20:45:32.969Z,21.40
2018-06-25T20:48:01.559Z,21.40
2018-06-25T20:50:29.890Z,21.30
2018-06-25T20:52:58.149Z,21.20
2018-06-25T20:55:26.554Z,21.10
2018-06-25T20:57:54.811Z,21.10
2018-06-25T21:00:23.480Z,21.10
2018-06-25T21:02:51.755Z,21.10
2018-06-25T21:05:20.029Z,21.00
2018-06-25T21:07:48.305Z,21.00
2018-06-25T21:10:16.515Z,20.90
2018-06-25T21:12:44.749Z,20.90
2018-06-25T21:15:12.987Z,20.90
2018-06-25T21:17:41.290Z,20.90
2018-06-25T21:20:09.537Z,20.80
2018-06-25T21:22:37.817Z,20.80
2018-06-25T21:25:06.222Z,20.70
2018-06-25T21:27:34.452Z,20.70
2018-06-25T21:30:02.706Z,20.70
2018-06-25T21:32:30.890Z,20.70
2018-06-25T21:34:59.132Z,20.70
2018-06-25T21:37:27.379Z,20.70
2018-06-25T21:39:55.615Z,20.70
2018-06-25T21:42:23.893Z,20.60
2018-06-25T21:44:52.138Z,20.60
2018-06-25T21:47:20.425Z,20.60
2018-06-25T21:49:48.639Z,20.50
2018-06-25T21:52:16.870Z,20.50
2018-06-25T21:54:45.107Z,20.50
2018-06-25T21:57:13.326Z,20.40
2018-06-25T21:59:41.698Z,20.40
2018-06-25T22:02:09.988Z,20.30
2018-06-25T22:04:38.227Z,20.30
2018-06-25T22:07:06.443Z,20.20
2018-06-25T22:09:34.702Z,20.20
2018-06-25T22:12:02.930Z,20.20
2018-06-25T22:14:31.124Z,20.10
2018-06-25T22:16:59.412Z,20.20
2018-06-25T22:19:27.621Z,20.20
2018-06-25T22:21:55.823Z,20.20
2018-06-25T22:24:24.020Z,20.20
2018-06-25T22:26:52.288Z,20.10
2018-06-25T22:29:20.757Z,20.10
2018-06-25T22:31:48.977Z,20.00
2018-06-25T22:34:17.261Z,20.00
2018-06-25T22:36:45.591Z,19.90
2018-06-25T22:39:13.828Z,19.90
2018-06-25T22:41:42.287Z,19.90
2018-06-25T22:44:12.227Z,19.90
2018-06-25T22:46:41.479Z,19.90
2018-06-25T22:49:10.106Z,19.90
2018-06-25T22:51:38.355Z,19.80
2018-06-25T22:54:07.443Z,19.80
2018-06-25T22:56:36.022Z,19.70
2018-06-25T22:59:04.726Z,19.60
2018-06-25T23:01:32.934Z,19.60
2018-06-25T23:04:01.180Z,19.60
2018-06-25T23:06:29.398Z,19.60
2018-06-25T23:08:57.597Z,19.50
2018-06-25T23:11:25.883Z,19.50
2018-06-25T23:16:22.069Z,19.40
2018-06-25T23:18:50.338Z,19.40
2018-06-25T23:21:18.541Z,19.40
2018-06-25T23:23:46.785Z,19.40
2018-06-25T23:26:15.065Z,19.50
2018-06-25T23:28:43.361Z,19.50
2018-06-25T23:31:11.773Z,19.50
2018-06-25T23:33:39.980Z,19.50
2018-06-25T23:36:08.205Z,19.50
2018-06-25T23:38:36.493Z,19.40
2018-06-25T23:41:04.770Z,19.40
2018-06-25T23:43:33.062Z,19.30
2018-06-25T23:46:01.370Z,19.30
2018-06-25T23:48:29.606Z,19.30
2018-06-25T23:50:57.886Z,19.30
2018-06-25T23:53:26.131Z,19.30
2018-06-25T23:55:54.382Z,19.30
2018-06-25T23:58:22.585Z,19.20
